createdAt,value
2023-03-26T00:02:13.212Z,11.65
2023-03-26T00:04:42.630Z,17.17
2023-03-26T00:07:10.598Z,16.23
2023-03-26T00:09:38.011Z,21.48
2023-03-26T00:12:04.857Z,16.50
2023-03-26T00:14:32.602Z,20.67
2023-03-26T00:16:59.382Z,21.63
2023-03-26T00:19:26.158Z,16.20
2023-03-26T00:21:53.337Z,18.88
2023-03-26T00:24:20.129Z,27.13
2023-03-26T00:26:53.480Z,29.40
2023-03-26T00:29:20.654Z,33.75
2023-03-26T00:31:47.467Z,35.47
2023-03-26T00:34:15.972Z,30.88
2023-03-26T00:36:44.028Z,32.65
2023-03-26T00:39:10.894Z,28.08
2023-03-26T00:41:43.374Z,34.22
2023-03-26T00:44:10.543Z,35.67
2023-03-26T00:46:37.473Z,29.48
2023-03-26T00:49:04.991Z,25.92
2023-03-26T00:51:31.977Z,26.73
2023-03-26T00:53:58.702Z,32.13
2023-03-26T00:56:25.604Z,37.78
2023-03-26T00:58:52.342Z,41.63
2023-03-26T01:01:27.946Z,33.83
2023-03-26T01:04:07.409Z,31.52
2023-03-26T01:06:36.898Z,21.70
2023-03-26T01:09:16.211Z,18.92
2023-03-26T01:11:43.091Z,13.88
2023-03-26T01:14:18.990Z,12.32
2023-03-26T01:16:52.568Z,8.25
2023-03-26T01:19:29.756Z,10.40
2023-03-26T01:21:57.783Z,9.27
2023-03-26T01:24:24.602Z,8.93
2023-03-26T01:27:04.415Z,7.57
2023-03-26T01:29:33.072Z,6.95
2023-03-26T01:32:22.334Z,7.18
2023-03-26T01:34:59.109Z,7.25
2023-03-26T01:37:35.100Z,5.93
2023-03-26T01:40:14.292Z,5.72
2023-03-26T01:42:44.363Z,4.25
2023-03-26T01:45:16.829Z,6.63
2023-03-26T01:47:43.776Z,8.98
2023-03-26T01:50:11.185Z,5.82
2023-03-26T01:52:38.153Z,9.52
2023-03-26T01:55:05.234Z,6.68
2023-03-26T01:57:36.852Z,10.40
2023-03-26T02:00:18.636Z,13.02
2023-03-26T02:03:17.722Z,18.73
2023-03-26T02:05:55.164Z,20.88
2023-03-26T02:08:35.950Z,19.25
2023-03-26T02:11:13.139Z,16.75
2023-03-26T02:13:41.237Z,18.58
2023-03-26T02:16:09.802Z,16.02
2023-03-26T02:18:39.057Z,13.07
2023-03-26T02:21:10.979Z,15.55
2023-03-26T02:23:38.419Z,15.60
2023-03-26T02:26:09.475Z,14.52
2023-03-26T02:28:36.844Z,14.52
2023-03-26T02:31:04.269Z,11.75
2023-03-26T02:33:31.382Z,16.67
2023-03-26T02:36:04.639Z,15.32
2023-03-26T02:38:35.059Z,13.88
2023-03-26T02:41:02.502Z,15.27
2023-03-26T02:43:29.317Z,16.42
2023-03-26T02:45:56.472Z,16.70
2023-03-26T02:48:23.648Z,23.38
2023-03-26T02:50:54.144Z,22.30
2023-03-26T02:53:29.771Z,20.95
2023-03-26T02:55:57.524Z,24.63
2023-03-26T02:58:26.450Z,20.80
2023-03-26T03:00:55.163Z,24.75
2023-03-26T03:03:25.923Z,21.90
2023-03-26T03:05:53.616Z,14.73
2023-03-26T03:08:28.246Z,7.88
2023-03-26T03:10:59.646Z,6.65
2023-03-26T03:13:26.828Z,6.38
2023-03-26T03:15:54.072Z,7.05
2023-03-26T03:18:21.122Z,3.42
2023-03-26T03:20:48.009Z,4.88
2023-03-26T03:23:14.880Z,2.22
2023-03-26T03:25:41.854Z,2.20
2023-03-26T03:28:08.848Z,5.07
2023-03-26T03:30:35.923Z,6.65
2023-03-26T03:33:03.016Z,10.25
2023-03-26T03:35:30.263Z,18.67
2023-03-26T03:37:57.794Z,19.90
2023-03-26T03:40:24.819Z,18.83
2023-03-26T03:42:51.764Z,20.30
2023-03-26T03:45:18.805Z,18.13
2023-03-26T03:47:45.973Z,27.58
2023-03-26T03:50:12.776Z,29.88
2023-03-26T03:52:39.596Z,21.45
2023-03-26T03:55:06.691Z,38.50
2023-03-26T03:57:34.634Z,20.75
2023-03-26T04:00:01.654Z,18.48
2023-03-26T04:02:34.592Z,25.05
2023-03-26T04:05:02.614Z,23.77
2023-03-26T04:07:32.387Z,21.98
2023-03-26T04:10:06.014Z,24.48
2023-03-26T04:12:32.798Z,21.60
2023-03-26T04:14:59.924Z,18.38
2023-03-26T04:17:26.866Z,15.93
2023-03-26T04:19:55.072Z,13.40
2023-03-26T04:22:22.269Z,13.27
2023-03-26T04:24:49.822Z,15.32
2023-03-26T04:27:19.656Z,9.75
2023-03-26T04:29:49.676Z,13.98
2023-03-26T04:32:26.512Z,35.67
2023-03-26T04:34:53.765Z,28.35
2023-03-26T04:37:26.611Z,21.88
2023-03-26T04:39:55.107Z,18.77
2023-03-26T04:42:22.377Z,22.27
2023-03-26T04:44:50.914Z,21.40
2023-03-26T04:47:20.586Z,17.73
2023-03-26T04:49:48.635Z,19.95
2023-03-26T04:52:15.642Z,20.27
2023-03-26T04:54:44.491Z,16.05
2023-03-26T04:57:26.333Z,14.02
2023-03-26T04:59:53.233Z,9.30
2023-03-26T05:02:20.254Z,7.25
2023-03-26T05:04:47.033Z,9.75
2023-03-26T05:07:17.882Z,8.85
2023-03-26T05:09:44.657Z,11.55
2023-03-26T05:12:11.534Z,8.98
2023-03-26T05:14:38.322Z,11.52
2023-03-26T05:17:10.833Z,7.93
2023-03-26T05:19:39.028Z,6.93
2023-03-26T05:22:05.912Z,8.88
2023-03-26T05:24:32.733Z,11.50
2023-03-26T05:26:59.562Z,8.07
2023-03-26T05:29:27.021Z,10.55
2023-03-26T05:31:53.732Z,6.22
2023-03-26T05:34:20.878Z,6.68
2023-03-26T05:36:48.615Z,7.03
2023-03-26T05:39:15.458Z,4.57
2023-03-26T05:41:42.880Z,5.93
2023-03-26T05:44:09.670Z,11.93
2023-03-26T05:46:36.442Z,9.30
2023-03-26T05:49:03.301Z,20.58
2023-03-26T05:51:30.105Z,17.35
2023-03-26T05:53:56.888Z,19.58
2023-03-26T05:56:23.701Z,19.88
2023-03-26T05:58:51.984Z,16.75
2023-03-26T06:01:19.759Z,17.17
2023-03-26T06:03:47.289Z,14.80
2023-03-26T06:06:16.217Z,13.82
2023-03-26T06:08:43.941Z,22.75
2023-03-26T06:11:12.680Z,26.63
2023-03-26T06:13:39.952Z,22.20
2023-03-26T06:16:07.404Z,18.77
2023-03-26T06:18:34.203Z,15.32
2023-03-26T06:21:01.284Z,18.67
2023-03-26T06:23:28.088Z,9.88
2023-03-26T06:25:55.361Z,12.52
2023-03-26T06:28:22.210Z,10.82
2023-03-26T06:30:49.286Z,8.65
2023-03-26T06:33:16.068Z,10.30
2023-03-26T06:35:44.185Z,41.17
2023-03-26T06:38:11.243Z,20.98
2023-03-26T06:40:38.115Z,13.20
2023-03-26T06:43:08.557Z,13.57
2023-03-26T06:45:37.562Z,10.27
2023-03-26T06:48:04.956Z,14.60
2023-03-26T06:50:32.869Z,15.32
2023-03-26T06:52:59.905Z,12.20
2023-03-26T06:55:26.754Z,11.60
2023-03-26T06:57:54.231Z,12.80
2023-03-26T07:00:21.165Z,11.38
2023-03-26T07:02:48.220Z,8.95
2023-03-26T07:05:15.614Z,8.27
2023-03-26T07:07:46.230Z,9.68
2023-03-26T07:10:13.705Z,12.95
2023-03-26T07:12:42.479Z,8.63
2023-03-26T07:15:10.479Z,8.27
2023-03-26T07:17:37.642Z,12.23
2023-03-26T07:20:05.845Z,13.65
2023-03-26T07:22:32.958Z,8.90
2023-03-26T07:25:00.317Z,8.85
2023-03-26T07:27:56.203Z,9.20
2023-03-26T07:30:57.268Z,8.90
2023-03-26T07:33:29.510Z,11.50
2023-03-26T07:36:23.895Z,44.63
2023-03-26T07:39:08.904Z,9.00
2023-03-26T07:41:43.984Z,14.48
2023-03-26T07:44:49.667Z,5.32
2023-03-26T07:47:35.108Z,5.53
2023-03-26T07:50:03.015Z,6.47
2023-03-26T07:52:30.213Z,7.60
2023-03-26T07:54:57.105Z,7.25
2023-03-26T07:57:38.635Z,8.23
2023-03-26T08:00:14.226Z,7.20
2023-03-26T08:02:47.212Z,6.63
2023-03-26T08:05:19.763Z,6.13
2023-03-26T08:08:25.713Z,6.10
2023-03-26T08:11:10.527Z,4.68
2023-03-26T08:13:45.998Z,17.17
2023-03-26T08:16:19.382Z,6.88
2023-03-26T08:18:55.992Z,4.15
2023-03-26T08:21:45.152Z,6.68
2023-03-26T08:27:13.442Z,5.10
2023-03-26T08:29:59.626Z,4.57
2023-03-26T08:32:26.556Z,8.70
2023-03-26T08:34:53.364Z,4.68
2023-03-26T08:37:20.212Z,5.93
2023-03-26T08:39:47.089Z,5.53
2023-03-26T08:42:20.354Z,8.98
2023-03-26T08:45:06.003Z,7.50
2023-03-26T08:48:03.875Z,8.43
2023-03-26T08:50:56.914Z,26.35
2023-03-26T08:53:35.964Z,11.70
2023-03-26T08:56:19.600Z,20.85
2023-03-26T08:59:13.879Z,10.70
2023-03-26T09:02:16.488Z,4.88
2023-03-26T09:05:17.102Z,4.82
2023-03-26T09:07:58.695Z,6.78
2023-03-26T09:10:25.461Z,11.00
2023-03-26T09:13:21.340Z,11.57
2023-03-26T09:16:06.694Z,10.82
2023-03-26T09:19:01.339Z,10.27
2023-03-26T09:21:32.644Z,17.83
2023-03-26T09:24:27.674Z,6.60
2023-03-26T09:27:26.555Z,13.65
2023-03-26T09:29:53.357Z,18.55
2023-03-26T09:32:58.080Z,10.48
2023-03-26T09:35:54.141Z,13.07
2023-03-26T09:38:24.128Z,12.25
2023-03-26T09:41:02.411Z,12.93
2023-03-26T09:43:54.448Z,10.45
2023-03-26T09:46:33.548Z,4.68
2023-03-26T09:49:37.763Z,6.40
2023-03-26T09:52:22.677Z,5.50
2023-03-26T09:55:22.749Z,5.38
2023-03-26T09:58:27.816Z,4.38
2023-03-26T10:01:05.928Z,4.88
2023-03-26T10:03:59.275Z,5.18
2023-03-26T10:06:34.915Z,6.47
2023-03-26T10:09:26.286Z,4.93
2023-03-26T10:12:09.229Z,11.00
2023-03-26T10:14:58.099Z,14.68
2023-03-26T10:17:33.669Z,5.38
2023-03-26T10:20:31.684Z,6.82
2023-03-26T10:23:23.119Z,8.90
2023-03-26T10:25:56.376Z,15.85
2023-03-26T10:28:26.410Z,11.73
2023-03-26T10:30:53.341Z,20.80
2023-03-26T10:33:43.368Z,13.32
2023-03-26T10:36:19.435Z,11.90
2023-03-26T10:38:52.110Z,6.22
2023-03-26T10:41:33.890Z,4.95
2023-03-26T10:44:08.812Z,8.60
2023-03-26T10:46:36.081Z,11.82
2023-03-26T10:49:16.785Z,8.38
2023-03-26T10:51:49.442Z,11.38
2023-03-26T10:54:25.972Z,9.63
2023-03-26T10:56:52.916Z,7.60
2023-03-26T10:59:19.801Z,5.63
2023-03-26T11:02:10.545Z,6.78
2023-03-26T11:05:09.463Z,5.22
2023-03-26T11:07:44.281Z,5.35
2023-03-26T11:10:16.531Z,13.55
2023-03-26T11:12:58.716Z,19.48
2023-03-26T11:15:33.476Z,14.40
2023-03-26T11:18:20.753Z,10.23
2023-03-26T11:21:19.282Z,17.70
2023-03-26T11:24:04.501Z,15.85
2023-03-26T11:26:52.889Z,5.55
2023-03-26T11:29:38.091Z,17.35
2023-03-26T11:32:24.104Z,15.20
2023-03-26T11:35:41.009Z,16.38
2023-03-26T11:38:17.291Z,14.65
2023-03-26T11:40:48.322Z,12.25
2023-03-26T11:43:17.203Z,11.50
2023-03-26T11:45:46.131Z,10.20
2023-03-26T11:48:17.108Z,11.13
2023-03-26T11:50:56.610Z,21.83
2023-03-26T11:53:26.252Z,20.87
2023-03-26T11:56:09.965Z,15.93
2023-03-26T11:59:01.543Z,75.63
2023-03-26T12:01:31.089Z,18.25
2023-03-26T12:04:14.698Z,4.93
2023-03-26T12:07:25.138Z,22.33
2023-03-26T12:10:18.352Z,7.70
2023-03-26T12:12:46.572Z,7.65
2023-03-26T12:15:20.275Z,3.75
2023-03-26T12:17:48.391Z,4.25
2023-03-26T12:20:24.905Z,6.30
2023-03-26T12:22:53.167Z,4.22
2023-03-26T12:25:21.616Z,5.07
2023-03-26T12:27:52.858Z,10.13
2023-03-26T12:30:22.148Z,3.72
2023-03-26T12:32:50.087Z,10.63
2023-03-26T12:35:26.884Z,10.73
2023-03-26T12:37:54.667Z,7.15
2023-03-26T12:40:32.605Z,8.63
2023-03-26T12:44:46.700Z,5.28
2023-03-26T12:47:55.076Z,6.63
2023-03-26T12:48:41.238Z,8.88
2023-03-26T12:51:20.314Z,6.30
2023-03-26T12:54:03.211Z,5.70
2023-03-26T12:57:11.911Z,5.53
2023-03-26T13:00:01.736Z,8.15
2023-03-26T13:02:53.663Z,6.00
2023-03-26T13:05:26.553Z,11.00
2023-03-26T13:08:17.036Z,3.85
2023-03-26T13:11:05.251Z,7.35
2023-03-26T13:13:40.970Z,5.05
2023-03-26T13:16:19.185Z,2.78
2023-03-26T13:19:18.006Z,7.88
2023-03-26T13:22:09.667Z,9.63
2023-03-26T13:24:58.460Z,9.07
2023-03-26T13:27:44.189Z,6.90
2023-03-26T13:30:28.704Z,14.60
2023-03-26T13:32:58.859Z,9.50
2023-03-26T13:35:31.875Z,7.60
2023-03-26T13:38:01.856Z,4.50
2023-03-26T13:40:50.195Z,7.82
2023-03-26T13:43:49.195Z,8.77
2023-03-26T13:46:35.518Z,9.50
2023-03-26T13:49:08.051Z,9.63
2023-03-26T13:51:49.810Z,17.83
2023-03-26T13:54:24.160Z,12.30
2023-03-26T13:56:55.193Z,8.18
2023-03-26T13:59:55.778Z,4.85
2023-03-26T14:02:38.402Z,4.38
2023-03-26T14:05:24.204Z,2.42
2023-03-26T14:07:58.382Z,5.07
2023-03-26T14:10:28.879Z,7.65
2023-03-26T14:15:55.877Z,5.80
2023-03-26T14:20:58.542Z,1.85
2023-03-26T14:23:34.113Z,2.08
2023-03-26T14:26:01.172Z,3.70
2023-03-26T14:28:34.051Z,1.88
2023-03-26T14:31:32.613Z,2.85
2023-03-26T14:34:23.566Z,4.10
2023-03-26T14:37:27.215Z,2.83
2023-03-26T14:40:14.951Z,7.95
2023-03-26T14:42:46.652Z,4.22
2023-03-26T14:45:34.790Z,3.53
2023-03-26T14:48:22.628Z,5.22
2023-03-26T14:51:33.614Z,5.60
2023-03-26T14:54:11.966Z,5.93
2023-03-26T14:57:00.930Z,3.33
2023-03-26T15:00:02.705Z,3.63
2023-03-26T15:03:00.545Z,4.43
2023-03-26T15:05:46.611Z,2.92
2023-03-26T15:08:34.243Z,4.20
2023-03-26T15:11:10.714Z,6.30
2023-03-26T15:13:59.624Z,7.97
2023-03-26T15:16:47.956Z,7.07
2023-03-26T15:19:41.294Z,5.32
2023-03-26T15:22:17.165Z,5.45
2023-03-26T15:25:16.160Z,8.25
2023-03-26T15:28:08.206Z,7.18
2023-03-26T15:31:10.754Z,4.40
2023-03-26T15:33:57.203Z,5.88
2023-03-26T15:36:41.088Z,9.50
2023-03-26T15:39:19.751Z,5.60
2023-03-26T15:42:04.112Z,6.10
2023-03-26T15:44:53.128Z,7.07
2023-03-26T15:47:42.689Z,7.53
2023-03-26T15:50:44.433Z,3.45
2023-03-26T15:53:58.701Z,4.15
2023-03-26T15:56:49.089Z,7.40
2023-03-26T16:00:00.697Z,8.27
2023-03-26T16:02:40.252Z,3.70
2023-03-26T16:05:29.122Z,3.90
2023-03-26T16:08:11.301Z,4.93
2023-03-26T16:10:47.185Z,3.88
2023-03-26T16:13:17.628Z,3.97
2023-03-26T16:15:57.089Z,6.82
2023-03-26T16:18:31.560Z,4.35
2023-03-26T16:21:32.369Z,4.10
2023-03-26T16:24:02.550Z,2.90
2023-03-26T16:26:44.634Z,8.35
2023-03-26T16:29:14.477Z,3.70
2023-03-26T16:32:10.935Z,4.95
2023-03-26T16:35:18.413Z,6.10
2023-03-26T16:37:50.608Z,6.90
2023-03-26T16:40:17.496Z,6.68
2023-03-26T16:43:18.350Z,7.82
2023-03-26T16:49:10.761Z,6.80
2023-03-26T16:52:12.961Z,4.35
2023-03-26T16:54:53.531Z,4.53
2023-03-26T16:57:28.481Z,6.18
2023-03-26T17:00:08.233Z,8.45
2023-03-26T17:03:00.807Z,8.77
2023-03-26T17:05:41.909Z,7.38
2023-03-26T17:08:19.251Z,13.35
2023-03-26T17:11:36.269Z,5.75
2023-03-26T17:14:21.050Z,4.50
2023-03-26T17:17:03.093Z,7.10
2023-03-26T17:19:55.303Z,3.30
2023-03-26T17:22:56.307Z,4.28
2023-03-26T17:25:52.058Z,4.63
2023-03-26T17:28:24.972Z,7.20
2023-03-26T17:31:01.954Z,3.20
2023-03-26T17:33:30.960Z,3.38
2023-03-26T17:36:13.074Z,15.30
2023-03-26T17:38:39.894Z,4.43
2023-03-26T17:41:12.294Z,6.22
2023-03-26T17:43:45.659Z,10.07
2023-03-26T17:46:38.038Z,8.18
2023-03-26T17:49:26.979Z,6.85
2023-03-26T17:51:59.550Z,16.00
2023-03-26T17:54:31.607Z,6.00
2023-03-26T17:57:02.561Z,10.40
2023-03-26T17:59:29.404Z,8.30
2023-03-26T18:02:00.948Z,3.80
2023-03-26T18:04:38.071Z,14.57
2023-03-26T18:07:35.537Z,10.98
2023-03-26T18:10:43.625Z,9.43
2023-03-26T18:13:32.030Z,9.07
2023-03-26T18:16:16.315Z,3.92
2023-03-26T18:18:50.214Z,2.53
2023-03-26T18:21:29.334Z,9.88
2023-03-26T18:23:59.936Z,8.48
2023-03-26T18:26:37.928Z,4.43
2023-03-26T18:29:16.026Z,7.13
2023-03-26T18:31:48.518Z,5.35
2023-03-26T18:34:19.016Z,4.00
2023-03-26T18:36:47.187Z,8.57
2023-03-26T18:39:14.023Z,8.93
2023-03-26T18:41:42.027Z,6.80
2023-03-26T18:44:14.714Z,8.35
2023-03-26T18:46:41.977Z,15.80
2023-03-26T18:49:12.037Z,3.95
2023-03-26T18:51:50.106Z,10.73
2023-03-26T18:54:21.576Z,20.45
2023-03-26T18:56:48.525Z,24.90
2023-03-26T18:59:27.972Z,24.33
2023-03-26T19:02:07.289Z,25.27
2023-03-26T19:04:34.913Z,26.63
2023-03-26T19:07:01.686Z,23.23
2023-03-26T19:09:32.220Z,8.95
2023-03-26T19:12:08.442Z,7.63
2023-03-26T19:14:56.261Z,13.70
2023-03-26T19:17:24.402Z,11.25
2023-03-26T19:19:51.393Z,13.65
2023-03-26T19:22:19.135Z,16.48
2023-03-26T19:24:46.273Z,8.73
2023-03-26T19:27:13.169Z,16.20
2023-03-26T19:29:40.023Z,14.60
2023-03-26T19:32:27.725Z,7.28
2023-03-26T19:34:54.663Z,14.90
2023-03-26T19:37:26.471Z,7.38
2023-03-26T19:39:54.421Z,7.75
2023-03-26T19:42:26.883Z,16.40
2023-03-26T19:45:30.957Z,12.57
2023-03-26T19:48:11.631Z,12.95
2023-03-26T19:50:42.468Z,15.38
2023-03-26T19:53:21.851Z,19.15
2023-03-26T19:55:58.814Z,8.45
2023-03-26T19:58:26.834Z,12.35
2023-03-26T20:00:56.275Z,17.75
2023-03-26T20:03:44.444Z,4.55
2023-03-26T20:06:12.955Z,9.45
2023-03-26T20:08:40.717Z,5.75
2023-03-26T20:11:14.473Z,5.60
2023-03-26T20:13:41.401Z,5.60
2023-03-26T20:16:26.055Z,6.53
2023-03-26T20:18:53.695Z,6.40
2023-03-26T20:21:20.530Z,7.28
2023-03-26T20:23:47.966Z,7.03
2023-03-26T20:26:15.516Z,8.57
2023-03-26T20:28:48.095Z,7.72
2023-03-26T20:31:21.886Z,8.48
2023-03-26T20:33:49.767Z,6.07
2023-03-26T20:36:33.819Z,4.22
2023-03-26T20:39:08.180Z,8.85
2023-03-26T20:41:35.855Z,6.75
2023-03-26T20:44:04.884Z,4.80
2023-03-26T20:46:33.118Z,5.22
2023-03-26T20:49:00.121Z,4.72
2023-03-26T20:51:28.262Z,3.38
2023-03-26T20:53:55.822Z,4.07
2023-03-26T20:56:22.686Z,3.08
2023-03-26T20:58:54.772Z,4.38
2023-03-26T21:01:27.900Z,3.28
2023-03-26T21:03:54.837Z,5.03
2023-03-26T21:06:21.674Z,2.65
2023-03-26T21:08:48.568Z,2.25
2023-03-26T21:11:27.314Z,2.83
2023-03-26T21:14:15.183Z,4.97
2023-03-26T21:16:42.181Z,3.47
2023-03-26T21:19:10.325Z,2.60
2023-03-26T21:21:57.585Z,5.13
2023-03-26T21:24:43.376Z,6.38
2023-03-26T21:27:22.918Z,8.23
2023-03-26T21:29:49.954Z,4.60
2023-03-26T21:32:17.005Z,3.22
2023-03-26T21:34:55.593Z,2.97
2023-03-26T21:37:25.765Z,4.88
2023-03-26T21:39:52.881Z,2.78
2023-03-26T21:42:19.905Z,2.83
2023-03-26T21:44:46.935Z,3.05
2023-03-26T21:47:14.159Z,3.05
2023-03-26T21:49:41.292Z,3.92
2023-03-26T21:52:16.026Z,4.68
2023-03-26T21:54:43.410Z,2.47
2023-03-26T21:57:57.637Z,3.38
2023-03-26T22:00:30.804Z,7.80
2023-03-26T22:03:17.256Z,6.43
2023-03-26T22:06:12.805Z,3.20
2023-03-26T22:08:40.731Z,4.80
2023-03-26T22:11:08.618Z,5.72
2023-03-26T22:13:35.811Z,2.47
2023-03-26T22:16:02.627Z,4.93
2023-03-26T22:18:30.062Z,3.63
2023-03-26T22:20:57.929Z,4.13
2023-03-26T22:23:24.897Z,6.63
2023-03-26T22:25:52.174Z,4.72
2023-03-26T22:28:19.324Z,5.53
2023-03-26T22:30:46.604Z,4.60
2023-03-26T22:33:14.448Z,4.55
2023-03-26T22:35:44.667Z,3.92
2023-03-26T22:38:11.845Z,4.65
2023-03-26T22:40:39.049Z,13.20
2023-03-26T22:43:05.886Z,5.38
2023-03-26T22:45:32.662Z,7.90
2023-03-26T22:48:03.875Z,6.53
2023-03-26T22:50:31.651Z,4.38
2023-03-26T22:52:58.579Z,5.07
2023-03-26T22:55:28.791Z,4.88
2023-03-26T22:57:57.004Z,5.97
2023-03-26T23:00:23.941Z,6.53
2023-03-26T23:02:50.716Z,7.22
2023-03-26T23:05:17.796Z,3.42
2023-03-26T23:07:46.052Z,4.63
2023-03-26T23:10:13.066Z,6.90
2023-03-26T23:12:40.186Z,4.50
2023-03-26T23:15:08.008Z,6.80
2023-03-26T23:17:37.842Z,6.43
2023-03-26T23:20:17.259Z,8.90
2023-03-26T23:22:44.357Z,4.97
2023-03-26T23:25:11.455Z,4.53
2023-03-26T23:27:39.979Z,5.95
2023-03-26T23:30:07.435Z,8.77
2023-03-26T23:32:38.192Z,6.68
2023-03-26T23:35:06.096Z,5.78
2023-03-26T23:37:34.963Z,6.38
2023-03-26T23:40:02.060Z,5.55
2023-03-26T23:42:29.421Z,6.28
2023-03-26T23:44:57.181Z,5.00
2023-03-26T23:47:24.225Z,4.35
2023-03-26T23:49:51.063Z,8.02
2023-03-26T23:52:18.019Z,5.35
2023-03-26T23:54:45.499Z,5.68
2023-03-26T23:57:12.342Z,4.70
2023-03-26T23:59:41.462Z,3.42
